KFCH/FCH METAR and TAF weather

Enter ICAO airport designator
Station Type Date Time Source
KFCH METAR 2019/12/11 12:15 UTC NOAA

KFCH 111215Z AUTO 23004KT M1/4SM FG OVC002 09/09 A3026 RMK A01 VIS M1/4V5


Station Type Date Time Source
KFCH Decoded METAR 2019/12/11 12:15 UTC NOAA

Fresno-Chandler, CA, United States (KFCH) 36-44N 119-49W
Dec 11, 2019 - 07:15 AM EST / 2019.12.11 1215 UTC
Wind: from the SW (230 degrees) at 5 MPH (4 KT):0
Visibility: less than 1/4 mile(s):1
Sky conditions: overcast
Weather: fog
Temperature: 48 F (9 C)
Dew Point: 48 F (9 C)
Relative Humidity: 100%
Pressure (altimeter): 30.26 in. Hg (1024 hPa)
ob: KFCH 111215Z AUTO 23004KT M1/4SM FG OVC002 09/09 A3026 RMK A01 VIS M1/4V5
cycle: 12

Station Type Date Time Source
KFCH TAF UTC NOAA

Error!

Example: see airport list